Vidal Ramos, Brazil
Current Conditions -  °F | °C
As of 9:00 PM on Wednesday 17 Dec 2014 (Local Time) from SBFL Reporting Station
Scattered Clouds Scattered Clouds  
Wind Chill: 77°   Ceiling: Unl
Heat Index: 79°   Visibility: 6mi
Dew Point: 68°   Wind: 12mph
Humidity: 74%   Direction: 10°N
Pressure: 29.8"   Gusts: NA
Location:  27.38°S, 49.37°W
Report Text: SBFL 172300Z 01010KT 9999 FEW040 SCT100 25/20 Q1009
Loading
Personal Weather Stations






























Interactive Weather Map New forecast layout! Learn more

10-Day Weather Forecast

Advertisements
Track Severe Weather on mobile